Lake Crystal, MN (56055)

5:34 AM CST on March 01, 2015 (GMT -0600)
Engles Farm | Change Station
CLOSE
Current Station
Personal Weather Station
Location: Lake Crystal, MN
Elevation: 988 ft
Nearby Weather Stations

Elev 988 ft 44.19 °N, 94.26 °W | Updated 10 minutes ago

Partly Cloudy
Partly Cloudy
15.4 °F
Feels Like 15 °F
N
1.0
Wind Variable Wind from West
Gusts 5.0 mph

Today
High -- | Low -- °F
--% Chance of Precip.
Yesterday
High -- | Low -- °F
Precip. -- in
6:54 AM 6:04 PM
Waxing Gibbous, 84% visible
Pressure 30.24 in
Visibility 10.0 miles
Clouds Overcast 1300 ft
Windchill 15 °F
Dew Point 12 °F
Humidity 87%
Rainfall 0.00 in
Snow Depth Not available.
UV 0 out of 12
Pollen .50 out of 12
Air Quality Not available.
Flu Activity Not available.
METAR KMKT 011115Z AUTO 23008KT 10SM OVC013 M09/M12 A3024 RMK AO1

More Conditions Fewer Conditions

Pressure 30.24 in
Visibility 10.0 miles
Clouds Overcast 1300 ft
Windchill 15 °F
Dew Point 12 °F
Humidity 87%
Rainfall 0.00 in
Snow Depth Not available.
UV 0 out of 12
Pollen .50 out of 12
Air Quality Not available.
Flu Activity Not available.
METAR KMKT 011115Z AUTO 23008KT 10SM OVC013 M09/M12 A3024 RMK AO1

More Conditions Fewer Conditions

10-Day Weather Forecast

Almanac

Astronomy

Mar. 01, 2015 Rise Set
Actual Time
Civil Twilight
Nautical Twilight
Astronomical Twilight
Moon
Length of Visible Light
Length of Day
Tomorrow will be .
, % of the Moon is Illuminated

Today's Extremes

State Highs State Lows

Community

WunderPhotos

Upload Photos

1,801,364 photos uploaded!

WunderBlogs® & News

Nearby

Air Quality

  Air Quality AQ Index Pollutant
Not available.

Snow Depth

Station Depth Elevation

Earthquake Activity

City Distance Mag. Time & Date
Minimum magnitude displayed is 2.5.

Coastal Water Temperatures

Place Temperature

Nearby Weather Stations